^^
Meteo Knjazevac Station Historical Data
Daily Summary for May 4, 2021 Units:  English    Metric   Both
Daily Weekly Monthly Yearly Custom
  High: Low: Average:
Temperature: 50.5 °F 48.7 °F 49.6 °F
Dew Point: 50.3 °F 48.5 °F 49.3 °F
Humidity: 99% 99% 99%
Wind Speed: 3mph 0mph 1.1mph
Wind Gust: 7mph - -
Wind- - South
Pressure: 30.07 in 30.04 in -
Precipitation: 0.00 in    
Historical Graphs
 
 
Tabular Data for May 4, 2021
Time Temperature Dew Point Pressure Wind Wind Speed Wind Gust Humidity Rainfall Rate (Hourly) solar Conditions
00:00 50.5 °F 50.3 °F 30.04 in North 1 mph 5 mph 99% 0.00 in 0 W/m2
00:10 50.5 °F 50.3 °F 30.04 in NNE 2 mph 5 mph 99% 0.00 in 0 W/m2
00:20 50.4 °F 50.1 °F 30.05 in Calm   5 mph 99% 0.00 in 0 W/m2
00:30 50.4 °F 50.1 °F 30.05 in NE 2 mph 3 mph 99% 0.00 in 0 W/m2
00:40 50.4 °F 50.1 °F 30.05 in North 2 mph 3 mph 99% 0.00 in 0 W/m2
00:50 50.2 °F 49.9 °F 30.05 in North 1 mph 3 mph 99% 0.00 in 0 W/m2
01:00 50.2 °F 49.9 °F 30.05 in North 1 mph 5 mph 99% 0.00 in 0 W/m2
01:10 50.2 °F 49.9 °F 30.05 in Calm   2 mph 99% 0.00 in 0 W/m2
01:20 50.2 °F 49.9 °F 30.04 in NNW 1 mph 2 mph 99% 0.00 in 0 W/m2
01:30 50.2 °F 49.9 °F 30.04 in WSW 2 mph 3 mph 99% 0.00 in 0 W/m2
01:40 50 °F 49.7 °F 30.04 in Calm   3 mph 99% 0.00 in 0 W/m2
01:50 50 °F 49.7 °F 30.04 in West 1 mph 3 mph 99% 0.00 in 0 W/m2
02:00 50 °F 49.7 °F 30.04 in West 1 mph 2 mph 99% 0.00 in 0 W/m2
02:10 50 °F 49.7 °F 30.05 in West 1 mph 3 mph 99% 0.00 in 0 W/m2
02:20 50 °F 49.7 °F 30.05 in NNW 1 mph 3 mph 99% 0.00 in 0 W/m2
02:30 49.8 °F 49.6 °F 30.05 in North 2 mph 5 mph 99% 0.00 in 0 W/m2
02:40 49.7 °F 49.4 °F 30.05 in Calm   4 mph 99% 0.00 in 0 W/m2
02:50 49.6 °F 49.4 °F 30.05 in NW 1 mph 3 mph 99% 0.00 in 0 W/m2
03:00 49.6 °F 49.4 °F 30.05 in Calm   2 mph 99% 0.00 in 0 W/m2
03:10 49.6 °F 49.4 °F 30.05 in West 2 mph 4 mph 99% 0.00 in 0 W/m2
03:20 49.5 °F 49.2 °F 30.04 in Calm   2 mph 99% 0.00 in 0 W/m2
03:30 49.5 °F 49.2 °F 30.05 in North 1 mph 2 mph 99% 0.00 in 0 W/m2
03:40 49.5 °F 49.2 °F 30.04 in NNE 2 mph 3 mph 99% 0.00 in 0 W/m2
03:50 49.5 °F 49.2 °F 30.04 in NNE 2 mph 4 mph 99% 0.00 in 0 W/m2
04:00 49.5 °F 49.2 °F 30.04 in Calm   3 mph 99% 0.00 in 0 W/m2
04:10 49.5 °F 49.2 °F 30.04 in Calm   4 mph 99% 0.00 in 0 W/m2
04:20 49.3 °F 49 °F 30.04 in Calm   3 mph 99% 0.00 in 0 W/m2
04:30 49.3 °F 49 °F 30.05 in Calm   4 mph 99% 0.00 in 0 W/m2
04:40 49.1 °F 48.8 °F 30.05 in North 2 mph 6 mph 99% 0.00 in 0 W/m2
04:50 49.1 °F 48.8 °F 30.05 in NNW 1 mph 4 mph 99% 0.00 in 0 W/m2
05:00 48.9 °F 48.7 °F 30.05 in North 3 mph 6 mph 99% 0.00 in 0 W/m2
05:10 48.9 °F 48.7 °F 30.05 in NNE 3 mph 7 mph 99% 0.00 in 0 W/m2
05:20 48.9 °F 48.7 °F 30.05 in NNE 1 mph 6 mph 99% 0.00 in 0 W/m2
05:30 48.9 °F 48.7 °F 30.05 in NE 1 mph 6 mph 99% 0.00 in 0 W/m2
05:40 49.1 °F 48.8 °F 30.06 in NNW 2 mph 5 mph 99% 0.00 in 0 W/m2
05:50 49.1 °F 48.8 °F 30.06 in Calm   5 mph 99% 0.00 in 0 W/m2
06:00 49.1 °F 48.8 °F 30.06 in Calm   5 mph 99% 0.00 in 0 W/m2
06:10 49.1 °F 48.8 °F 30.06 in Calm   2 mph 99% 0.00 in 2 W/m2
06:20 48.7 °F 48.5 °F 30.06 in NNW 2 mph 4 mph 99% 0.00 in 4 W/m2
06:30 48.7 °F 48.5 °F 30.07 in NW 1 mph 4 mph 99% 0.00 in 9 W/m2
Knjazevac, Serbia
Compliments of Weather Underground - 2 mb